sensor_id;sensor_type;location;lat;lon;timestamp;pressure;altitude;pressure_sealevel;temperature;humidity
49397;BME280;35615;41.410;2.194;2023-01-09T00:01:46;100974.66;;;18.65;50.48
49397;BME280;35615;41.410;2.194;2023-01-09T00:04:14;100965.91;;;18.65;50.47
49397;BME280;35615;41.410;2.194;2023-01-09T00:06:42;100962.34;;;18.59;50.76
49397;BME280;35615;41.410;2.194;2023-01-09T00:09:13;100963.22;;;18.60;50.67
49397;BME280;35615;41.410;2.194;2023-01-09T00:11:45;100962.25;;;18.49;50.91
49397;BME280;35615;41.410;2.194;2023-01-09T00:14:19;100960.56;;;18.52;50.92
49397;BME280;35615;41.410;2.194;2023-01-09T00:16:49;100963.09;;;18.46;50.92
49397;BME280;35615;41.410;2.194;2023-01-09T00:19:20;100963.09;;;18.45;50.96
49397;BME280;35615;41.410;2.194;2023-01-09T00:21:47;100972.81;;;18.59;50.55
49397;BME280;35615;41.410;2.194;2023-01-09T00:24:16;100978.91;;;18.60;50.58
49397;BME280;35615;41.410;2.194;2023-01-09T00:26:46;100976.38;;;18.65;50.42
49397;BME280;35615;41.410;2.194;2023-01-09T00:29:15;100985.00;;;18.57;50.64
49397;BME280;35615;41.410;2.194;2023-01-09T00:31:42;100983.25;;;18.59;50.68
49397;BME280;35615;41.410;2.194;2023-01-09T00:34:09;100984.13;;;18.60;50.66
49397;BME280;35615;41.410;2.194;2023-01-09T00:36:39;100983.25;;;18.59;50.61
49397;BME280;35615;41.410;2.194;2023-01-09T00:39:09;100983.25;;;18.59;50.50
49397;BME280;35615;41.410;2.194;2023-01-09T00:41:41;100985.06;;;18.64;50.40
49397;BME280;35615;41.410;2.194;2023-01-09T00:44:10;100979.69;;;18.50;50.74
49397;BME280;35615;41.410;2.194;2023-01-09T00:46:40;100984.97;;;18.53;50.86
49397;BME280;35615;41.410;2.194;2023-01-09T00:49:11;100988.50;;;18.59;50.48
49397;BME280;35615;41.410;2.194;2023-01-09T00:51:39;100992.75;;;18.47;50.53
49397;BME280;35615;41.410;2.194;2023-01-09T00:54:08;100991.09;;;18.53;50.54
49397;BME280;35615;41.410;2.194;2023-01-09T00:56:35;101003.09;;;18.38;50.99
49397;BME280;35615;41.410;2.194;2023-01-09T00:59:03;100999.75;;;18.49;50.68
49397;BME280;35615;41.410;2.194;2023-01-09T01:01:30;100997.09;;;18.46;50.58
49397;BME280;35615;41.410;2.194;2023-01-09T01:03:58;100989.28;;;18.51;50.48
49397;BME280;35615;41.410;2.194;2023-01-09T01:06:48;100991.09;;;18.53;50.49
49397;BME280;35615;41.410;2.194;2023-01-09T01:09:36;100986.66;;;18.51;50.66
49397;BME280;35615;41.410;2.194;2023-01-09T01:12:07;100997.09;;;18.43;50.77
49397;BME280;35615;41.410;2.194;2023-01-09T01:14:47;100994.59;;;18.57;50.40
49397;BME280;35615;41.410;2.194;2023-01-09T01:17:14;100995.44;;;18.56;50.37
49397;BME280;35615;41.410;2.194;2023-01-09T01:19:41;100995.31;;;18.42;50.56
49397;BME280;35615;41.410;2.194;2023-01-09T01:22:11;100996.19;;;18.43;50.61
49397;BME280;35615;41.410;2.194;2023-01-09T01:24:38;100995.38;;;18.50;50.30
49397;BME280;35615;41.410;2.194;2023-01-09T01:27:11;100997.84;;;18.35;50.57
49397;BME280;35615;41.410;2.194;2023-01-09T01:29:38;100997.97;;;18.47;50.34
49397;BME280;35615;41.410;2.194;2023-01-09T01:32:09;100993.69;;;18.55;50.10
49397;BME280;35615;41.410;2.194;2023-01-09T01:34:37;100996.34;;;18.59;49.97
49397;BME280;35615;41.410;2.194;2023-01-09T01:37:07;101000.69;;;18.56;50.01
49397;BME280;35615;41.410;2.194;2023-01-09T01:39:35;100999.81;;;18.57;50.03
49397;BME280;35615;41.410;2.194;2023-01-09T01:42:03;100995.38;;;18.48;50.26
49397;BME280;35615;41.410;2.194;2023-01-09T01:47:18;100992.81;;;18.51;50.11
49397;BME280;35615;41.410;2.194;2023-01-09T01:49:48;100995.34;;;18.44;50.25
49397;BME280;35615;41.410;2.194;2023-01-09T01:52:16;100995.31;;;18.41;50.33
49397;BME280;35615;41.410;2.194;2023-01-09T01:54:47;100999.59;;;18.36;50.41
49397;BME280;35615;41.410;2.194;2023-01-09T01:57:15;100991.53;;;18.14;50.69
49397;BME280;35615;41.410;2.194;2023-01-09T01:59:44;100987.28;;;18.25;50.36
49397;BME280;35615;41.410;2.194;2023-01-09T02:02:20;101001.31;;;18.29;50.20
49397;BME280;35615;41.410;2.194;2023-01-09T02:04:49;100983.56;;;18.02;50.36
49397;BME280;35615;41.410;2.194;2023-01-09T02:07:22;100985.44;;;18.14;50.00
49397;BME280;35615;41.410;2.194;2023-01-09T02:09:50;100978.53;;;18.19;49.72
49397;BME280;35615;41.410;2.194;2023-01-09T02:12:24;100990.66;;;18.15;49.12
49397;BME280;35615;41.410;2.194;2023-01-09T02:14:59;101001.34;;;18.34;48.70
49397;BME280;35615;41.410;2.194;2023-01-09T02:31:12;101036.38;;;18.51;46.12
49397;BME280;35615;41.410;2.194;2023-01-09T02:34:01;101035.44;;;18.41;45.96
49397;BME280;35615;41.410;2.194;2023-01-09T02:36:46;101043.31;;;18.44;45.25
49397;BME280;35615;41.410;2.194;2023-01-09T02:41:58;101044.28;;;18.55;44.84
49397;BME280;35615;41.410;2.194;2023-01-09T02:44:39;101033.72;;;18.46;45.08
49397;BME280;35615;41.410;2.194;2023-01-09T02:49:53;101022.38;;;18.44;44.71
49397;BME280;35615;41.410;2.194;2023-01-09T02:52:38;101038.22;;;18.59;44.41
49397;BME280;35615;41.410;2.194;2023-01-09T02:55:22;101041.56;;;18.46;44.00
49397;BME280;35615;41.410;2.194;2023-01-09T02:58:02;101031.88;;;18.38;44.21
49397;BME280;35615;41.410;2.194;2023-01-09T03:00:35;101042.44;;;18.44;43.52
49397;BME280;35615;41.410;2.194;2023-01-09T03:03:22;101044.22;;;18.51;43.69
49397;BME280;35615;41.410;2.194;2023-01-09T03:08:21;101042.91;;;18.09;45.23
49397;BME280;35615;41.410;2.194;2023-01-09T03:10:57;101061.16;;;18.06;44.28
49397;BME280;35615;41.410;2.194;2023-01-09T03:13:26;101051.81;;;18.25;43.41
49397;BME280;35615;41.410;2.194;2023-01-09T03:16:04;101057.44;;;17.86;43.56
49397;BME280;35615;41.410;2.194;2023-01-09T03:18:33;101045.66;;;18.21;42.99
49397;BME280;35615;41.410;2.194;2023-01-09T03:21:04;101058.03;;;18.38;42.88
49397;BME280;35615;41.410;2.194;2023-01-09T03:23:44;101074.16;;;17.98;42.85
49397;BME280;35615;41.410;2.194;2023-01-09T03:26:12;101063.03;;;18.16;42.37
49397;BME280;35615;41.410;2.194;2023-01-09T03:28:39;101071.69;;;18.11;42.20
49397;BME280;35615;41.410;2.194;2023-01-09T03:31:06;101077.78;;;18.11;42.13
49397;BME280;35615;41.410;2.194;2023-01-09T03:33:33;101079.66;;;18.21;41.83
49397;BME280;35615;41.410;2.194;2023-01-09T03:36:03;101060.22;;;18.01;41.89
49397;BME280;35615;41.410;2.194;2023-01-09T03:38:36;101075.19;;;18.11;42.09
49397;BME280;35615;41.410;2.194;2023-01-09T03:41:04;101075.44;;;18.33;41.66
49397;BME280;35615;41.410;2.194;2023-01-09T03:43:34;101077.47;;;17.87;42.12
49397;BME280;35615;41.410;2.194;2023-01-09T03:46:03;101064.69;;;18.08;41.81
49397;BME280;35615;41.410;2.194;2023-01-09T03:48:31;101071.41;;;17.91;42.29
49397;BME280;35615;41.410;2.194;2023-01-09T03:50:58;101074.91;;;17.90;42.14
49397;BME280;35615;41.410;2.194;2023-01-09T03:53:30;101074.19;;;18.03;41.87
49397;BME280;35615;41.410;2.194;2023-01-09T03:55:57;101082.75;;;17.91;42.12
49397;BME280;35615;41.410;2.194;2023-01-09T03:58:25;101075.78;;;17.92;42.05
49397;BME280;35615;41.410;2.194;2023-01-09T04:01:00;101083.00;;;18.10;41.70
49397;BME280;35615;41.410;2.194;2023-01-09T04:03:28;101075.59;;;17.77;42.51
49397;BME280;35615;41.410;2.194;2023-01-09T04:05:56;101081.25;;;18.07;41.91
49397;BME280;35615;41.410;2.194;2023-01-09T04:08:26;101075.16;;;18.10;41.54
49397;BME280;35615;41.410;2.194;2023-01-09T04:10:54;101081.16;;;18.03;41.74
49397;BME280;35615;41.410;2.194;2023-01-09T04:13:23;101083.56;;;17.86;42.19
49397;BME280;35615;41.410;2.194;2023-01-09T04:15:56;101076.78;;;18.02;42.04
49397;BME280;35615;41.410;2.194;2023-01-09T04:18:26;101069.97;;;18.14;41.52
49397;BME280;35615;41.410;2.194;2023-01-09T04:20:57;101077.09;;;18.27;41.50
49397;BME280;35615;41.410;2.194;2023-01-09T04:23:26;101089.25;;;18.22;41.35
49397;BME280;35615;41.410;2.194;2023-01-09T04:25:59;101092.50;;;18.03;41.94
49397;BME280;35615;41.410;2.194;2023-01-09T04:28:34;101094.34;;;18.10;41.88
49397;BME280;35615;41.410;2.194;2023-01-09T04:31:04;101091.00;;;18.22;41.93
49397;BME280;35615;41.410;2.194;2023-01-09T04:33:37;101082.13;;;18.08;42.19
49397;BME280;35615;41.410;2.194;2023-01-09T04:36:06;101071.59;;;18.05;42.41
49397;BME280;35615;41.410;2.194;2023-01-09T04:38:34;101069.09;;;18.12;42.12
49397;BME280;35615;41.410;2.194;2023-01-09T04:41:02;101075.31;;;18.23;41.97
49397;BME280;35615;41.410;2.194;2023-01-09T04:43:33;101084.78;;;18.12;42.24
49397;BME280;35615;41.410;2.194;2023-01-09T04:46:02;101073.50;;;18.18;41.89
49397;BME280;35615;41.410;2.194;2023-01-09T04:48:29;101084.91;;;18.24;41.95
49397;BME280;35615;41.410;2.194;2023-01-09T04:50:56;101084.16;;;18.32;41.91
49397;BME280;35615;41.410;2.194;2023-01-09T04:53:24;101090.09;;;18.18;42.01
49397;BME280;35615;41.410;2.194;2023-01-09T04:55:53;101082.28;;;18.21;41.91
49397;BME280;35615;41.410;2.194;2023-01-09T04:58:22;101081.44;;;18.24;41.99
49397;BME280;35615;41.410;2.194;2023-01-09T05:00:51;101102.22;;;18.13;42.50
49397;BME280;35615;41.410;2.194;2023-01-09T05:03:22;101115.31;;;18.16;42.10
49397;BME280;35615;41.410;2.194;2023-01-09T05:05:50;101117.06;;;18.16;41.87
49397;BME280;35615;41.410;2.194;2023-01-09T05:08:17;101122.38;;;18.20;41.54
49397;BME280;35615;41.410;2.194;2023-01-09T05:10:45;101124.13;;;18.21;41.65
49397;BME280;35615;41.410;2.194;2023-01-09T05:13:13;101125.88;;;18.22;41.55
49397;BME280;35615;41.410;2.194;2023-01-09T05:15:40;101113.66;;;18.21;41.62
49397;BME280;35615;41.410;2.194;2023-01-09T05:18:07;101131.13;;;18.25;41.65
49397;BME280;35615;41.410;2.194;2023-01-09T05:20:38;101143.13;;;18.10;41.43
49397;BME280;35615;41.410;2.194;2023-01-09T05:23:05;101135.44;;;18.20;41.65
49397;BME280;35615;41.410;2.194;2023-01-09T05:25:33;101147.50;;;18.11;40.95
49397;BME280;35615;41.410;2.194;2023-01-09T05:28:00;101150.13;;;18.11;41.63
49397;BME280;35615;41.410;2.194;2023-01-09T05:30:28;101146.16;;;17.78;41.37
49397;BME280;35615;41.410;2.194;2023-01-09T05:32:55;101151.53;;;17.87;40.58
49397;BME280;35615;41.410;2.194;2023-01-09T05:35:23;101169.50;;;17.67;40.23
49397;BME280;35615;41.410;2.194;2023-01-09T05:37:50;101168.41;;;17.55;40.07
49397;BME280;35615;41.410;2.194;2023-01-09T05:40:21;101162.50;;;17.66;39.93
49397;BME280;35615;41.410;2.194;2023-01-09T05:42:58;101162.84;;;17.85;39.72
49397;BME280;35615;41.410;2.194;2023-01-09T05:45:25;101165.56;;;17.95;39.45
49397;BME280;35615;41.410;2.194;2023-01-09T05:47:55;101181.59;;;17.62;39.68
49397;BME280;35615;41.410;2.194;2023-01-09T05:50:24;101168.84;;;17.81;39.34
49397;BME280;35615;41.410;2.194;2023-01-09T05:52:52;101188.00;;;17.80;39.15
49397;BME280;35615;41.410;2.194;2023-01-09T05:55:20;101178.53;;;17.85;39.15
49397;BME280;35615;41.410;2.194;2023-01-09T05:57:48;101194.84;;;17.71;39.09
49397;BME280;35615;41.410;2.194;2023-01-09T06:00:17;101192.38;;;17.81;38.98
49397;BME280;35615;41.410;2.194;2023-01-09T06:02:45;101199.06;;;17.65;38.81
49397;BME280;35615;41.410;2.194;2023-01-09T06:05:12;101208.00;;;17.76;38.50
49397;BME280;35615;41.410;2.194;2023-01-09T06:07:40;101205.28;;;17.71;39.00
49397;BME280;35615;41.410;2.194;2023-01-09T06:10:09;101213.91;;;17.67;38.91
49397;BME280;35615;41.410;2.194;2023-01-09T06:12:38;101220.75;;;17.61;38.99
49397;BME280;35615;41.410;2.194;2023-01-09T06:15:06;101219.50;;;17.39;39.23
49397;BME280;35615;41.410;2.194;2023-01-09T06:17:34;101213.66;;;17.52;39.20
49397;BME280;35615;41.410;2.194;2023-01-09T06:20:02;101241.63;;;17.59;39.08
49397;BME280;35615;41.410;2.194;2023-01-09T06:22:30;101242.47;;;17.57;39.28
49397;BME280;35615;41.410;2.194;2023-01-09T06:24:57;101243.63;;;17.24;39.65
49397;BME280;35615;41.410;2.194;2023-01-09T06:27:25;101258.56;;;17.31;39.40
49397;BME280;35615;41.410;2.194;2023-01-09T06:29:52;101265.81;;;17.48;39.17
49397;BME280;35615;41.410;2.194;2023-01-09T06:32:20;101267.38;;;17.39;39.50
49397;BME280;35615;41.410;2.194;2023-01-09T06:34:48;101278.19;;;17.12;39.64
49397;BME280;35615;41.410;2.194;2023-01-09T06:37:15;101278.13;;;17.08;39.68
49397;BME280;35615;41.410;2.194;2023-01-09T06:39:43;101280.88;;;17.16;39.98
49397;BME280;35615;41.410;2.194;2023-01-09T06:42:11;101286.69;;;17.46;39.55
49397;BME280;35615;41.410;2.194;2023-01-09T06:44:38;101289.78;;;17.27;40.30
49397;BME280;35615;41.410;2.194;2023-01-09T06:47:08;101289.22;;;17.41;39.88
49397;BME280;35615;41.410;2.194;2023-01-09T06:49:36;101296.63;;;17.19;40.18
49397;BME280;35615;41.410;2.194;2023-01-09T06:52:04;101304.69;;;17.31;39.81
49397;BME280;35615;41.410;2.194;2023-01-09T06:54:34;101293.19;;;17.21;40.10
49397;BME280;35615;41.410;2.194;2023-01-09T06:57:02;101305.88;;;17.48;39.70
49397;BME280;35615;41.410;2.194;2023-01-09T06:59:30;101314.69;;;17.09;40.22
49397;BME280;35615;41.410;2.194;2023-01-09T07:01:58;101305.63;;;17.34;39.75
49397;BME280;35615;41.410;2.194;2023-01-09T07:04:26;101309.06;;;17.32;40.05
49397;BME280;35615;41.410;2.194;2023-01-09T07:06:53;101308.91;;;17.24;40.02
49397;BME280;35615;41.410;2.194;2023-01-09T07:09:20;101313.25;;;17.25;40.29
49397;BME280;35615;41.410;2.194;2023-01-09T07:11:48;101315.22;;;17.37;39.95
49397;BME280;35615;41.410;2.194;2023-01-09T07:14:15;101329.53;;;17.12;40.48
49397;BME280;35615;41.410;2.194;2023-01-09T07:16:43;101340.00;;;17.13;40.53
49397;BME280;35615;41.410;2.194;2023-01-09T07:19:10;101335.66;;;17.14;40.55
49397;BME280;35615;41.410;2.194;2023-01-09T07:21:38;101349.34;;;17.02;41.05
49397;BME280;35615;41.410;2.194;2023-01-09T07:24:05;101354.38;;;16.95;41.19
49397;BME280;35615;41.410;2.194;2023-01-09T07:26:33;101355.00;;;16.83;41.33
49397;BME280;35615;41.410;2.194;2023-01-09T07:29:00;101352.22;;;17.14;41.02
49397;BME280;35615;41.410;2.194;2023-01-09T07:31:28;101358.19;;;17.09;40.89
49397;BME280;35615;41.410;2.194;2023-01-09T07:33:56;101360.91;;;17.15;40.99
49397;BME280;35615;41.410;2.194;2023-01-09T07:36:23;101365.03;;;17.04;41.19
49397;BME280;35615;41.410;2.194;2023-01-09T07:38:51;101373.91;;;17.10;40.87
49397;BME280;35615;41.410;2.194;2023-01-09T07:41:18;101368.91;;;16.82;41.50
49397;BME280;35615;41.410;2.194;2023-01-09T07:43:46;101385.59;;;16.89;41.20
49397;BME280;35615;41.410;2.194;2023-01-09T07:46:13;101388.13;;;16.86;40.94
49397;BME280;35615;41.410;2.194;2023-01-09T07:48:41;101388.06;;;16.84;41.06
49397;BME280;35615;41.410;2.194;2023-01-09T07:51:08;101394.16;;;16.83;40.94
49397;BME280;35615;41.410;2.194;2023-01-09T07:53:36;101396.91;;;16.89;41.00
49397;BME280;35615;41.410;2.194;2023-01-09T07:56:04;101396.91;;;16.89;41.02
49397;BME280;35615;41.410;2.194;2023-01-09T07:58:32;101400.38;;;16.88;41.20
49397;BME280;35615;41.410;2.194;2023-01-09T08:01:00;101412.16;;;16.72;41.09
49397;BME280;35615;41.410;2.194;2023-01-09T08:03:27;101408.00;;;16.80;41.29
49397;BME280;35615;41.410;2.194;2023-01-09T08:05:54;101411.66;;;16.87;41.22
49397;BME280;35615;41.410;2.194;2023-01-09T08:08:22;101414.69;;;16.68;41.59
49397;BME280;35615;41.410;2.194;2023-01-09T08:10:49;101427.31;;;16.52;41.89
49397;BME280;35615;41.410;2.194;2023-01-09T08:13:16;101427.91;;;16.75;41.49
49397;BME280;35615;41.410;2.194;2023-01-09T08:15:43;101425.91;;;16.31;41.99
49397;BME280;35615;41.410;2.194;2023-01-09T08:18:10;101420.22;;;16.47;41.47
49397;BME280;35615;41.410;2.194;2023-01-09T08:20:37;101422.13;;;16.54;41.75
49397;BME280;35615;41.410;2.194;2023-01-09T08:23:05;101424.19;;;16.67;41.71
49397;BME280;35615;41.410;2.194;2023-01-09T08:25:32;101433.03;;;16.38;41.86
49397;BME280;35615;41.410;2.194;2023-01-09T08:27:59;101438.06;;;16.30;41.93
49397;BME280;35615;41.410;2.194;2023-01-09T08:30:26;101436.09;;;16.56;41.41
49397;BME280;35615;41.410;2.194;2023-01-09T08:32:53;101451.28;;;16.38;41.80
49397;BME280;35615;41.410;2.194;2023-01-09T08:35:21;101451.09;;;16.30;41.92
49397;BME280;35615;41.410;2.194;2023-01-09T08:37:48;101454.22;;;16.51;41.51
49397;BME280;35615;41.410;2.194;2023-01-09T08:40:15;101467.69;;;16.34;41.92
49397;BME280;35615;41.410;2.194;2023-01-09T08:42:43;101469.84;;;16.17;42.36
49397;BME280;35615;41.410;2.194;2023-01-09T08:45:28;101455.91;;;16.49;41.57
49397;BME280;35615;41.410;2.194;2023-01-09T08:48:14;101467.13;;;16.45;41.67
49397;BME280;35615;41.410;2.194;2023-01-09T08:50:42;101469.97;;;16.54;41.48
49397;BME280;35615;41.410;2.194;2023-01-09T08:53:10;101479.91;;;16.68;41.42
49397;BME280;35615;41.410;2.194;2023-01-09T08:55:37;101480.19;;;16.47;41.58
49397;BME280;35615;41.410;2.194;2023-01-09T08:58:07;101492.59;;;16.22;41.53
49397;BME280;35615;41.410;2.194;2023-01-09T09:00:35;101488.59;;;16.68;40.94
49397;BME280;35615;41.410;2.194;2023-01-09T09:03:02;101491.59;;;16.83;40.54
49397;BME280;35615;41.410;2.194;2023-01-09T09:05:30;101502.91;;;17.20;40.06
49397;BME280;35615;41.410;2.194;2023-01-09T09:07:57;101493.56;;;17.30;39.67
49397;BME280;35615;41.410;2.194;2023-01-09T09:10:26;101499.56;;;17.65;38.97
49397;BME280;35615;41.410;2.194;2023-01-09T09:12:54;101499.09;;;17.43;39.21
49397;BME280;35615;41.410;2.194;2023-01-09T09:15:22;101504.59;;;17.57;38.81
49397;BME280;35615;41.410;2.194;2023-01-09T09:17:50;101492.94;;;17.81;38.52
49397;BME280;35615;41.410;2.194;2023-01-09T09:20:22;101520.06;;;18.29;37.62
49397;BME280;35615;41.410;2.194;2023-01-09T09:22:49;101521.66;;;18.21;37.49
49397;BME280;35615;41.410;2.194;2023-01-09T09:25:19;101509.97;;;18.51;37.18
49397;BME280;35615;41.410;2.194;2023-01-09T09:27:49;101506.31;;;18.91;36.56
49397;BME280;35615;41.410;2.194;2023-01-09T09:30:17;101519.09;;;19.27;36.12
49397;BME280;35615;41.410;2.194;2023-01-09T09:32:44;101524.63;;;19.45;35.16
49397;BME280;35615;41.410;2.194;2023-01-09T09:35:12;101532.75;;;19.62;34.72
49397;BME280;35615;41.410;2.194;2023-01-09T09:37:40;101547.13;;;19.95;33.94
49397;BME280;35615;41.410;2.194;2023-01-09T09:40:11;101550.97;;;20.23;33.66
49397;BME280;35615;41.410;2.194;2023-01-09T09:42:51;101569.78;;;20.61;33.53
49397;BME280;35615;41.410;2.194;2023-01-09T09:56:03;101610.47;;;22.35;30.24
49397;BME280;35615;41.410;2.194;2023-01-09T10:01:02;101614.06;;;22.54;29.50
49397;BME280;35615;41.410;2.194;2023-01-09T10:03:34;101631.56;;;22.47;29.64
49397;BME280;35615;41.410;2.194;2023-01-09T10:06:06;101626.69;;;21.59;30.11
49397;BME280;35615;41.410;2.194;2023-01-09T10:08:37;101630.91;;;21.31;31.47
49397;BME280;35615;41.410;2.194;2023-01-09T10:11:12;101628.53;;;21.71;30.26
49397;BME280;35615;41.410;2.194;2023-01-09T10:13:42;101624.50;;;22.31;29.56
49397;BME280;35615;41.410;2.194;2023-01-09T10:16:34;101611.41;;;22.55;29.08
49397;BME280;35615;41.410;2.194;2023-01-09T10:19:32;101629.59;;;21.99;29.65
49397;BME280;35615;41.410;2.194;2023-01-09T10:24:50;101614.97;;;22.76;28.57
49397;BME280;35615;41.410;2.194;2023-01-09T10:27:33;101605.38;;;23.24;27.94
49397;BME280;35615;41.410;2.194;2023-01-09T10:35:17;101591.09;;;24.15;27.15
49397;BME280;35615;41.410;2.194;2023-01-09T10:37:50;101599.16;;;23.87;27.03
49397;BME280;35615;41.410;2.194;2023-01-09T10:40:29;101610.47;;;24.14;27.11
49397;BME280;35615;41.410;2.194;2023-01-09T10:43:10;101605.28;;;23.98;26.80
49397;BME280;35615;41.410;2.194;2023-01-09T10:45:49;101586.66;;;24.35;26.63
49397;BME280;35615;41.410;2.194;2023-01-09T10:50:53;101594.06;;;25.13;26.90
49397;BME280;35615;41.410;2.194;2023-01-09T10:58:46;101591.38;;;25.16;25.26
49397;BME280;35615;41.410;2.194;2023-01-09T11:01:15;101582.66;;;25.05;24.47
49397;BME280;35615;41.410;2.194;2023-01-09T11:03:45;101577.16;;;25.31;24.79
49397;BME280;35615;41.410;2.194;2023-01-09T11:06:23;101574.09;;;25.75;23.92
49397;BME280;35615;41.410;2.194;2023-01-09T11:08:53;101577.41;;;25.03;24.85
49397;BME280;35615;41.410;2.194;2023-01-09T11:11:33;101577.28;;;26.01;23.67
49397;BME280;35615;41.410;2.194;2023-01-09T11:16:31;101584.72;;;27.00;22.29
49397;BME280;35615;41.410;2.194;2023-01-09T11:18:59;101588.03;;;27.66;21.20
49397;BME280;35615;41.410;2.194;2023-01-09T11:23:56;101597.28;;;27.42;21.63
49397;BME280;35615;41.410;2.194;2023-01-09T11:26:42;101590.50;;;28.59;20.83
49397;BME280;35615;41.410;2.194;2023-01-09T11:29:11;101588.75;;;28.58;20.21
49397;BME280;35615;41.410;2.194;2023-01-09T11:31:42;101594.41;;;29.18;19.43
49397;BME280;35615;41.410;2.194;2023-01-09T11:34:19;101588.25;;;29.15;19.58
49397;BME280;35615;41.410;2.194;2023-01-09T11:36:47;101582.75;;;28.87;19.61
49397;BME280;35615;41.410;2.194;2023-01-09T11:39:27;101585.53;;;29.85;19.07
49397;BME280;35615;41.410;2.194;2023-01-09T11:42:00;101576.47;;;29.90;18.43
49397;BME280;35615;41.410;2.194;2023-01-09T11:44:32;101596.28;;;30.13;18.42
49397;BME280;35615;41.410;2.194;2023-01-09T11:47:00;101590.19;;;29.76;18.46
49397;BME280;35615;41.410;2.194;2023-01-09T11:49:32;101583.47;;;29.63;18.40
49397;BME280;35615;41.410;2.194;2023-01-09T11:54:33;101591.28;;;29.69;18.12
49397;BME280;35615;41.410;2.194;2023-01-09T11:57:03;101577.44;;;30.19;17.83
49397;BME280;35615;41.410;2.194;2023-01-09T11:59:30;101570.69;;;30.07;18.02
49397;BME280;35615;41.410;2.194;2023-01-09T12:16:06;101562.66;;;31.94;15.99
49397;BME280;35615;41.410;2.194;2023-01-09T12:21:17;101549.63;;;31.85;16.25
49397;BME280;35615;41.410;2.194;2023-01-09T12:32:18;101561.56;;;32.88;15.34
49397;BME280;35615;41.410;2.194;2023-01-09T12:37:39;101544.50;;;32.02;15.75
49397;BME280;35615;41.410;2.194;2023-01-09T12:48:06;101528.00;;;33.02;15.29
49397;BME280;35615;41.410;2.194;2023-01-09T12:55:47;101531.78;;;32.54;14.96
49397;BME280;35615;41.410;2.194;2023-01-09T12:58:23;101523.88;;;33.15;14.63
49397;BME280;35615;41.410;2.194;2023-01-09T13:00:54;101518.28;;;30.63;15.95
49397;BME280;35615;41.410;2.194;2023-01-09T13:05:54;101512.91;;;30.65;16.33
49397;BME280;35615;41.410;2.194;2023-01-09T13:11:04;101500.25;;;30.70;16.45
49397;BME280;35615;41.410;2.194;2023-01-09T13:14:16;101509.13;;;30.15;16.56
49397;BME280;35615;41.410;2.194;2023-01-09T13:16:47;101506.13;;;29.66;17.10
49397;BME280;35615;41.410;2.194;2023-01-09T13:21:50;101500.19;;;29.88;17.07
49397;BME280;35615;41.410;2.194;2023-01-09T13:27:09;101485.00;;;30.47;16.92
49397;BME280;35615;41.410;2.194;2023-01-09T13:29:41;101492.91;;;30.50;16.56
49397;BME280;35615;41.410;2.194;2023-01-09T13:35:01;101487.50;;;29.96;17.19
49397;BME280;35615;41.410;2.194;2023-01-09T13:37:30;101503.09;;;28.81;17.91
49397;BME280;35615;41.410;2.194;2023-01-09T13:40:00;101493.03;;;28.58;18.43
49397;BME280;35615;41.410;2.194;2023-01-09T13:42:28;101519.72;;;28.90;18.43
49397;BME280;35615;41.410;2.194;2023-01-09T13:50:46;101523.13;;;29.30;17.81
49397;BME280;35615;41.410;2.194;2023-01-09T13:58:26;101547.91;;;28.22;19.21
49397;BME280;35615;41.410;2.194;2023-01-09T14:01:38;101547.28;;;27.19;20.31
49397;BME280;35615;41.410;2.194;2023-01-09T14:06:40;101569.72;;;26.42;21.45
49397;BME280;35615;41.410;2.194;2023-01-09T14:09:17;101591.22;;;26.17;21.63
49397;BME280;35615;41.410;2.194;2023-01-09T14:12:00;101581.66;;;26.07;21.82
49397;BME280;35615;41.410;2.194;2023-01-09T14:14:28;101550.56;;;26.20;22.09
49397;BME280;35615;41.410;2.194;2023-01-09T14:16:57;101564.38;;;26.45;21.58
49397;BME280;35615;41.410;2.194;2023-01-09T14:19:35;101581.88;;;25.87;21.83
49397;BME280;35615;41.410;2.194;2023-01-09T14:22:05;101574.31;;;25.49;22.75
49397;BME280;35615;41.410;2.194;2023-01-09T14:24:40;101562.41;;;25.94;22.34
49397;BME280;35615;41.410;2.194;2023-01-09T14:30:15;101555.31;;;25.96;22.45
49397;BME280;35615;41.410;2.194;2023-01-09T14:32:42;101561.56;;;25.89;22.22
49397;BME280;35615;41.410;2.194;2023-01-09T14:35:27;101558.00;;;25.90;22.29
49397;BME280;35615;41.410;2.194;2023-01-09T14:40:51;101564.63;;;24.41;23.81
49397;BME280;35615;41.410;2.194;2023-01-09T14:43:25;101561.47;;;25.12;23.40
49397;BME280;35615;41.410;2.194;2023-01-09T14:45:57;101554.38;;;23.41;24.89
49397;BME280;35615;41.410;2.194;2023-01-09T14:48:30;101570.16;;;23.76;24.96
49397;BME280;35615;41.410;2.194;2023-01-09T14:50:57;101582.25;;;24.25;24.04
49397;BME280;35615;41.410;2.194;2023-01-09T14:53:29;101563.16;;;23.63;24.92
49397;BME280;35615;41.410;2.194;2023-01-09T14:56:02;101569.16;;;24.03;24.83
49397;BME280;35615;41.410;2.194;2023-01-09T14:58:35;101572.00;;;23.09;25.45
49397;BME280;35615;41.410;2.194;2023-01-09T15:03:33;101594.75;;;22.66;25.87
49397;BME280;35615;41.410;2.194;2023-01-09T15:06:04;101591.34;;;23.17;25.42
49397;BME280;35615;41.410;2.194;2023-01-09T15:08:31;101605.28;;;22.64;25.94
49397;BME280;35615;41.410;2.194;2023-01-09T15:10:59;101605.34;;;23.05;25.47
49397;BME280;35615;41.410;2.194;2023-01-09T15:13:36;101608.00;;;23.01;25.48
49397;BME280;35615;41.410;2.194;2023-01-09T15:16:11;101629.78;;;22.29;25.96
49397;BME280;35615;41.410;2.194;2023-01-09T15:18:42;101635.19;;;22.75;25.77
49397;BME280;35615;41.410;2.194;2023-01-09T15:21:16;101662.91;;;21.98;26.23
49397;BME280;35615;41.410;2.194;2023-01-09T15:23:44;101658.63;;;22.11;26.35
49397;BME280;35615;41.410;2.194;2023-01-09T15:28:52;101662.59;;;21.51;26.94